Time;durP1;ratioP1;P1;durP2;ratioP2;P2;SDS_P1;SDS_P2;PMS_P1;PMS_P2;Temp;Humidity;BMP_temperature;BMP_pressure;BME280_temperature;BME280_humidity;BME280_pressure;Samples;Min_cycle;Max_cycle;Signal;HPM_P1;HPM_P2
2022/04/04 00:01:16;;;;;;;11.55;6.50;;;2.60;99.90;;;;;;5053432;28;20032;-56
2022/04/04 00:03:42;;;;;;;9.63;6.75;;;2.70;99.90;;;;;;5053278;28;20029;-56
2022/04/04 00:06:08;;;;;;;8.63;6.07;;;2.70;99.90;;;;;;5053123;28;20021;-56
2022/04/04 00:08:34;;;;;;;10.45;6.68;;;2.70;99.90;;;;;;5053373;28;20404;-56
2022/04/04 00:11:00;;;;;;;13.02;6.53;;;2.80;99.90;;;;;;5052601;28;20079;-56
2022/04/04 00:13:27;;;;;;;11.18;6.53;;;2.80;99.90;;;;;;5052286;28;20040;-56
2022/04/04 00:15:53;;;;;;;11.30;6.38;;;2.80;99.90;;;;;;5052134;28;20025;-57
2022/04/04 00:18:19;;;;;;;12.15;6.35;;;2.70;99.90;;;;;;5052205;28;20033;-56
2022/04/04 00:20:44;;;;;;;10.25;6.35;;;2.80;99.90;;;;;;5052168;28;20031;-56
2022/04/04 00:23:13;;;;;;;10.02;6.63;;;2.80;99.90;;;;;;5052074;28;20083;-56
2022/04/04 00:25:45;;;;;;;10.02;6.57;;;2.90;99.90;;;;;;5052523;28;20021;-56
2022/04/04 00:28:12;;;;;;;11.43;6.55;;;2.90;99.90;;;;;;5053043;28;20398;-56
2022/04/04 00:30:38;;;;;;;11.23;7.45;;;2.90;99.90;;;;;;5052637;28;20036;-56
2022/04/04 00:33:05;;;;;;;10.35;6.63;;;2.70;99.90;;;;;;5052503;28;20035;-56
2022/04/04 00:35:31;;;;;;;9.63;6.65;;;2.60;99.90;;;;;;5051935;28;20482;-55
2022/04/04 00:38:01;;;;;;;10.40;6.80;;;2.50;99.90;;;;;;5051699;28;20020;-56
2022/04/04 00:40:26;;;;;;;9.65;6.78;;;2.50;99.90;;;;;;5052394;28;20032;-56
2022/04/04 00:42:53;;;;;;;11.05;6.68;;;2.50;99.90;;;;;;5052115;28;20047;-56
2022/04/04 00:45:19;;;;;;;10.80;7.53;;;2.50;99.90;;;;;;5067267;28;20078;-56
2022/04/04 00:47:45;;;;;;;13.25;7.40;;;2.50;99.90;;;;;;5052364;28;20035;-56
2022/04/04 00:50:11;;;;;;;13.05;7.25;;;2.50;99.90;;;;;;5051736;28;20103;-56
2022/04/04 00:52:38;;;;;;;12.38;7.10;;;2.50;99.90;;;;;;5051619;28;20025;-57
2022/04/04 00:55:07;;;;;;;9.25;6.25;;;2.50;99.90;;;;;;5051652;28;20060;-56
2022/04/04 00:57:32;;;;;;;11.60;6.93;;;2.50;99.90;;;;;;5051863;28;20029;-56
2022/04/04 00:59:58;;;;;;;11.02;7.03;;;2.40;99.90;;;;;;5051595;28;20036;-56
2022/04/04 01:02:25;;;;;;;9.10;6.38;;;2.40;99.90;;;;;;5051205;28;20025;-56
2022/04/04 01:04:50;;;;;;;10.32;7.20;;;2.30;99.90;;;;;;5051495;28;20028;-56
2022/04/04 01:07:16;;;;;;;10.30;7.15;;;2.30;99.90;;;;;;5051304;28;20158;-56
2022/04/04 01:09:41;;;;;;;12.68;7.07;;;2.30;99.90;;;;;;5051577;28;20028;-56
2022/04/04 01:12:12;;;;;;;11.63;7.82;;;2.30;99.90;;;;;;5051681;28;20429;-56
2022/04/04 01:14:48;;;;;;;11.25;6.53;;;2.30;99.90;;;;;;5051660;28;20035;-56
2022/04/04 01:17:25;;;;;;;11.02;7.47;;;2.30;99.90;;;;;;5052023;28;20017;-56
2022/04/04 01:19:51;;;;;;;11.75;7.63;;;2.30;99.90;;;;;;5051714;28;20482;-56
2022/04/04 01:22:17;;;;;;;13.27;7.78;;;2.30;99.90;;;;;;5051156;28;20029;-56
2022/04/04 01:24:43;;;;;;;12.95;7.63;;;2.40;99.90;;;;;;5051562;28;20044;-56
2022/04/04 01:27:11;;;;;;;13.77;7.90;;;2.30;99.90;;;;;;5052068;28;20036;-56
2022/04/04 01:29:38;;;;;;;10.50;7.50;;;2.30;99.90;;;;;;5052038;28;20036;-56
2022/04/04 01:32:05;;;;;;;11.20;7.45;;;2.30;99.90;;;;;;5051218;28;20132;-56
2022/04/04 01:34:31;;;;;;;10.32;7.13;;;2.30;99.90;;;;;;5051216;28;20036;-56
2022/04/04 01:36:57;;;;;;;11.05;7.43;;;2.20;99.90;;;;;;5051500;28;20560;-55
2022/04/04 01:39:23;;;;;;;13.00;7.65;;;2.20;99.90;;;;;;5051343;28;20029;-56
2022/04/04 01:41:49;;;;;;;10.60;7.07;;;2.20;99.90;;;;;;5051650;28;20025;-56
2022/04/04 01:44:15;;;;;;;14.27;7.40;;;2.10;99.90;;;;;;5051399;28;20025;-56
2022/04/04 01:46:41;;;;;;;12.18;7.90;;;2.00;99.90;;;;;;5067054;28;20086;-55
2022/04/04 01:49:07;;;;;;;10.30;7.43;;;2.00;99.90;;;;;;5051334;28;20056;-55
2022/04/04 01:51:36;;;;;;;12.18;7.82;;;2.00;99.90;;;;;;5050821;28;20032;-56
2022/04/04 01:54:02;;;;;;;10.90;7.88;;;1.90;99.90;;;;;;5050789;28;20585;-56
2022/04/04 01:56:28;;;;;;;13.68;8.05;;;1.90;99.90;;;;;;5050467;28;20386;-56
2022/04/04 01:58:54;;;;;;;14.73;9.07;;;1.90;99.90;;;;;;5051233;28;20375;-55
2022/04/04 02:01:22;;;;;;;14.60;9.25;;;1.80;99.90;;;;;;5050750;28;20031;-56
2022/04/04 02:03:50;;;;;;;15.80;9.25;;;1.80;99.90;;;;;;5051162;28;20368;-56
2022/04/04 02:06:18;;;;;;;19.27;8.77;;;1.80;99.90;;;;;;5050898;28;20360;-56
2022/04/04 02:08:45;;;;;;;14.40;9.00;;;1.70;99.90;;;;;;5050496;28;20044;-56
2022/04/04 02:11:13;;;;;;;11.82;8.68;;;1.70;99.90;;;;;;5051668;28;20033;-56
2022/04/04 02:13:39;;;;;;;13.55;8.57;;;1.60;99.90;;;;;;5050238;28;20116;-56
2022/04/04 02:16:05;;;;;;;17.30;9.25;;;1.60;99.90;;;;;;5050389;28;20096;-56
2022/04/04 02:18:32;;;;;;;18.13;10.10;;;1.70;99.90;;;;;;5052772;28;20025;-56
2022/04/04 02:20:59;;;;;;;17.70;10.00;;;1.60;99.90;;;;;;5054629;28;20368;-56
2022/04/04 02:23:25;;;;;;;18.88;10.60;;;1.60;99.90;;;;;;5054558;28;20021;-56
2022/04/04 02:25:52;;;;;;;12.75;9.32;;;1.60;99.90;;;;;;5054475;28;20048;-57
2022/04/04 02:28:18;;;;;;;14.80;9.65;;;1.60;99.90;;;;;;5055980;28;20342;-56
2022/04/04 02:30:45;;;;;;;12.70;9.48;;;1.60;99.90;;;;;;5055482;28;20036;-56
2022/04/04 02:33:15;;;;;;;13.93;9.88;;;1.60;99.90;;;;;;5055476;28;20033;-56
2022/04/04 02:35:41;;;;;;;16.73;10.13;;;1.60;99.90;;;;;;5071507;28;20063;-56
2022/04/04 02:38:07;;;;;;;18.38;10.25;;;1.60;99.90;;;;;;5055542;28;20060;-56
2022/04/04 02:40:34;;;;;;;15.55;9.93;;;1.70;99.90;;;;;;5055012;28;20017;-56
2022/04/04 02:43:00;;;;;;;16.33;10.18;;;1.70;99.90;;;;;;5055053;28;20503;-56
2022/04/04 02:45:26;;;;;;;15.60;10.32;;;1.70;99.90;;;;;;5055117;28;20025;-56
2022/04/04 02:47:52;;;;;;;19.80;10.68;;;1.80;99.90;;;;;;5053926;28;20021;-56
2022/04/04 02:50:17;;;;;;;19.60;10.43;;;1.70;99.90;;;;;;5054246;28;20391;-56
2022/04/04 02:52:44;;;;;;;17.40;11.13;;;1.70;99.90;;;;;;5054554;28;20025;-56
2022/04/04 02:57:57;;;;;;;15.55;10.52;;;1.80;99.90;;;;;;5054840;28;20036;-56
2022/04/04 03:00:24;;;;;;;18.70;11.07;;;1.80;99.90;;;;;;5054985;28;20018;-56
2022/04/04 03:02:54;;;;;;;18.58;11.27;;;1.70;99.90;;;;;;5054874;28;20159;-56
2022/04/04 03:05:19;;;;;;;20.45;12.40;;;1.70;99.90;;;;;;5054609;28;20496;-56
2022/04/04 03:07:46;;;;;;;21.63;12.10;;;1.70;99.90;;;;;;5054601;28;20052;-56
2022/04/04 03:10:12;;;;;;;22.25;11.95;;;1.70;99.90;;;;;;5055043;28;20332;-56
2022/04/04 03:12:46;;;;;;;16.95;11.82;;;1.70;99.90;;;;;;5054547;28;20029;-56
2022/04/04 03:15:14;;;;;;;19.58;11.73;;;1.70;99.90;;;;;;5054557;28;20559;-56
2022/04/04 03:17:42;;;;;;;19.25;12.18;;;1.70;99.90;;;;;;5054974;28;20032;-57
2022/04/04 03:20:09;;;;;;;22.70;12.85;;;1.60;99.90;;;;;;5055376;28;20021;-56
2022/04/04 03:22:40;;;;;;;18.95;12.55;;;1.70;99.90;;;;;;5054832;28;20029;-56
2022/04/04 03:25:06;;;;;;;21.17;13.50;;;1.70;99.90;;;;;;5054515;28;20394;-56
2022/04/04 03:27:32;;;;;;;20.67;13.32;;;1.70;99.90;;;;;;5054591;28;20509;-56
2022/04/04 03:29:58;;;;;;;17.60;12.93;;;1.70;99.90;;;;;;5055201;28;20018;-56
2022/04/04 03:32:23;;;;;;;20.75;13.38;;;1.60;99.90;;;;;;5054673;28;20025;-57
2022/04/04 03:34:49;;;;;;;19.42;12.55;;;1.60;99.90;;;;;;5054060;28;20025;-56
2022/04/04 03:37:16;;;;;;;20.30;13.35;;;1.50;99.90;;;;;;5053666;28;20021;-58
2022/04/04 03:39:42;;;;;;;21.88;13.75;;;1.50;99.90;;;;;;5053600;28;20021;-56
2022/04/04 03:42:08;;;;;;;21.92;13.70;;;1.40;99.90;;;;;;5052220;28;20494;-56
2022/04/04 03:44:33;;;;;;;21.35;14.00;;;1.40;99.90;;;;;;5053010;28;20470;-56
2022/04/04 03:46:59;;;;;;;20.38;13.90;;;1.50;99.90;;;;;;5052760;28;20025;-56
2022/04/04 03:49:25;;;;;;;22.90;13.57;;;1.60;99.90;;;;;;5053243;28;20125;-56
2022/04/04 03:51:51;;;;;;;23.88;14.43;;;1.60;99.90;;;;;;5053083;28;20040;-61
2022/04/04 03:54:17;;;;;;;22.95;14.13;;;1.70;99.90;;;;;;5052621;28;20029;-56
2022/04/04 03:56:44;;;;;;;23.63;14.52;;;1.70;99.90;;;;;;5052430;28;20108;-56
2022/04/04 03:59:10;;;;;;;23.85;14.05;;;1.70;99.90;;;;;;5052592;28;20102;-57
2022/04/04 04:01:35;;;;;;;25.42;15.02;;;1.80;99.90;;;;;;5052895;28;20071;-56
2022/04/04 04:04:01;;;;;;;21.92;13.48;;;1.80;99.90;;;;;;5052862;28;20025;-56
2022/04/04 04:06:26;;;;;;;21.90;13.90;;;1.80;99.90;;;;;;5052846;28;20035;-56
2022/04/04 04:08:53;;;;;;;20.20;12.45;;;1.80;99.90;;;;;;5053303;28;20032;-56
2022/04/04 04:11:19;;;;;;;21.75;14.35;;;1.90;99.90;;;;;;5053294;28;20067;-56
2022/04/04 04:13:46;;;;;;;20.50;13.85;;;1.90;99.90;;;;;;5052871;28;20862;-56
2022/04/04 04:16:14;;;;;;;22.60;12.15;;;1.90;99.90;;;;;;5053094;28;20040;-56
2022/04/04 04:18:41;;;;;;;24.65;13.77;;;2.00;99.90;;;;;;5053073;28;20521;-56
2022/04/04 04:21:09;;;;;;;23.02;13.65;;;2.10;99.90;;;;;;5053099;28;20112;-56
2022/04/04 04:23:37;;;;;;;21.35;13.02;;;2.10;99.90;;;;;;5053141;28;20410;-56
2022/04/04 04:26:08;;;;;;;19.45;12.88;;;2.10;99.90;;;;;;5052947;28;20017;-56
2022/04/04 04:28:35;;;;;;;23.38;13.00;;;2.10;99.90;;;;;;5052504;28;20045;-56
2022/04/04 04:31:00;;;;;;;23.35;13.63;;;2.10;99.90;;;;;;5051967;28;20025;-56
2022/04/04 04:33:26;;;;;;;22.58;14.00;;;2.10;99.90;;;;;;5051643;28;20021;-56
2022/04/04 04:35:53;;;;;;;19.08;12.68;;;2.10;99.90;;;;;;5052701;28;20075;-56
2022/04/04 04:38:19;;;;;;;20.92;12.82;;;2.20;99.90;;;;;;5052455;28;20029;-56
2022/04/04 04:40:45;;;;;;;28.30;13.07;;;2.20;99.90;;;;;;5049709;28;20033;-56
2022/04/04 04:43:10;;;;;;;23.30;11.95;;;2.30;99.90;;;;;;5051882;28;20017;-56
2022/04/04 04:45:36;;;;;;;26.08;14.00;;;2.20;99.90;;;;;;5051699;28;20057;-56
2022/04/04 04:48:02;;;;;;;24.92;13.20;;;2.20;99.90;;;;;;5052096;28;20033;-56
2022/04/04 04:50:29;;;;;;;21.75;13.85;;;2.20;99.90;;;;;;5051740;28;20037;-56
2022/04/04 04:52:56;;;;;;;25.25;12.45;;;2.20;99.90;;;;;;5051747;28;20510;-56
2022/04/04 04:55:23;;;;;;;23.13;13.57;;;2.30;99.90;;;;;;5052280;28;20509;-56
2022/04/04 04:57:52;;;;;;;20.25;12.65;;;2.30;99.90;;;;;;5051721;28;20391;-57
2022/04/04 05:00:22;;;;;;;19.27;12.40;;;2.30;99.90;;;;;;5051939;28;20025;-56
2022/04/04 05:03:24;;;;;;;22.42;12.77;;;2.30;99.90;;;;;;5051633;28;20021;-56
2022/04/04 05:05:34;;;;;;;23.15;13.13;;;2.50;99.90;;;;;;5052363;28;20033;-56
2022/04/04 05:08:00;;;;;;;22.88;13.20;;;2.40;99.90;;;;;;5052187;28;20037;-57
2022/04/04 05:10:26;;;;;;;24.05;12.93;;;2.40;99.90;;;;;;5051651;28;20090;-57
2022/04/04 05:12:52;;;;;;;24.05;12.80;;;2.50;99.90;;;;;;5051586;28;20031;-57
2022/04/04 05:15:17;;;;;;;25.25;14.23;;;2.50;99.90;;;;;;5051117;28;20040;-57
2022/04/04 05:17:43;;;;;;;20.88;13.18;;;2.50;99.90;;;;;;5052385;28;20477;-57
2022/04/04 05:20:09;;;;;;;20.65;11.75;;;2.50;99.90;;;;;;5052335;28;20074;-56
2022/04/04 05:22:35;;;;;;;21.33;12.05;;;2.60;99.90;;;;;;5051526;28;20021;-61
2022/04/04 05:25:00;;;;;;;26.38;12.88;;;2.60;99.90;;;;;;5052001;28;20032;-59
2022/04/04 05:27:26;;;;;;;23.60;12.30;;;2.70;99.90;;;;;;5051994;28;20054;-56
2022/04/04 05:29:51;;;;;;;20.48;10.85;;;2.80;99.90;;;;;;5051782;28;20029;-56
2022/04/04 05:32:18;;;;;;;17.83;11.05;;;2.80;99.90;;;;;;5051566;28;20032;-56
2022/04/04 05:34:43;;;;;;;18.80;11.18;;;2.90;99.90;;;;;;5051653;28;20021;-56
2022/04/04 05:37:09;;;;;;;19.67;11.75;;;2.90;99.90;;;;;;5051755;28;20032;-56
2022/04/04 05:39:35;;;;;;;17.10;10.82;;;2.90;99.90;;;;;;5051563;28;20029;-56
2022/04/04 05:42:00;;;;;;;24.83;12.18;;;3.00;99.90;;;;;;5051335;28;20032;-56
2022/04/04 05:44:26;;;;;;;20.98;12.25;;;2.90;99.90;;;;;;5051235;28;20025;-56
2022/04/04 05:46:52;;;;;;;17.88;10.00;;;3.00;99.90;;;;;;5051709;28;20047;-56
2022/04/04 05:49:18;;;;;;;20.95;12.05;;;3.10;99.90;;;;;;5050489;28;20102;-56
2022/04/04 05:51:44;;;;;;;17.77;10.52;;;3.20;99.90;;;;;;5051379;28;20385;-57
2022/04/04 05:54:09;;;;;;;20.02;11.10;;;3.20;99.90;;;;;;5051418;28;20490;-56
2022/04/04 05:56:37;;;;;;;21.23;11.73;;;3.20;99.90;;;;;;5051091;28;20036;-56
2022/04/04 05:59:03;;;;;;;18.95;12.55;;;3.20;99.90;;;;;;5051752;28;20048;-56
2022/04/04 06:01:29;;;;;;;23.13;11.38;;;3.30;99.90;;;;;;5050918;28;20021;-55
2022/04/04 06:03:55;;;;;;;17.98;10.00;;;3.40;99.90;;;;;;5051226;28;20032;-56
2022/04/04 06:06:20;;;;;;;20.20;11.10;;;3.50;99.90;;;;;;5050998;28;20021;-56
2022/04/04 06:08:46;;;;;;;21.58;11.00;;;3.50;99.90;;;;;;5051646;28;20104;-56
2022/04/04 06:11:11;;;;;;;22.05;12.55;;;3.60;99.90;;;;;;5050114;28;20383;-56
2022/04/04 06:13:37;;;;;;;20.00;12.05;;;3.60;99.90;;;;;;5050914;28;20159;-56
2022/04/04 06:16:03;;;;;;;20.42;11.02;;;3.70;99.90;;;;;;5051104;28;20537;-56
2022/04/04 06:18:30;;;;;;;16.35;10.73;;;3.70;99.90;;;;;;5050899;28;20029;-56
2022/04/04 06:20:55;;;;;;;20.55;10.98;;;3.80;99.90;;;;;;5049901;28;20110;-56
2022/04/04 06:23:21;;;;;;;19.55;10.43;;;3.80;99.90;;;;;;5051021;28;20538;-56
2022/04/04 06:25:49;;;;;;;19.33;11.63;;;3.90;99.90;;;;;;5051042;28;20021;-56
2022/04/04 06:28:15;;;;;;;21.55;11.63;;;3.90;99.90;;;;;;5051274;28;20038;-57
2022/04/04 06:30:41;;;;;;;16.52;11.18;;;3.90;99.90;;;;;;5050774;28;20115;-56
2022/04/04 06:33:07;;;;;;;19.15;11.70;;;4.00;99.90;;;;;;5050706;28;20108;-56
2022/04/04 06:35:32;;;;;;;14.93;9.63;;;4.10;99.90;;;;;;5050535;28;20028;-56
2022/04/04 06:38:00;;;;;;;18.15;11.15;;;4.20;99.90;;;;;;5050652;28;20025;-57
2022/04/04 06:40:26;;;;;;;23.65;10.55;;;4.30;99.90;;;;;;5051591;28;20501;-57
2022/04/04 06:42:52;;;;;;;16.75;10.55;;;4.40;99.90;;;;;;5050757;28;20092;-56
2022/04/04 06:45:17;;;;;;;18.02;11.07;;;4.40;99.90;;;;;;5051359;28;20115;-57
2022/04/04 06:47:44;;;;;;;21.05;11.63;;;4.50;99.90;;;;;;5050920;28;20029;-56
2022/04/04 06:50:10;;;;;;;22.02;10.00;;;4.60;99.90;;;;;;5051561;28;20880;-56
2022/04/04 06:52:37;;;;;;;16.08;10.38;;;4.70;99.90;;;;;;5050907;28;20100;-56
2022/04/04 06:55:05;;;;;;;16.75;7.95;;;4.80;99.90;;;;;;5052287;28;20492;-56
2022/04/04 06:57:30;;;;;;;20.50;10.80;;;4.80;99.90;;;;;;5050807;28;20032;-56
2022/04/04 06:59:59;;;;;;;19.08;10.63;;;4.90;99.90;;;;;;5051869;28;20451;-57
2022/04/04 07:02:24;;;;;;;15.52;9.20;;;5.00;99.90;;;;;;5051479;28;20017;-56
2022/04/04 07:04:50;;;;;;;20.90;11.38;;;5.00;99.90;;;;;;5053309;28;20036;-57
2022/04/04 07:07:17;;;;;;;13.45;10.35;;;5.10;99.90;;;;;;5054697;28;20025;-56
2022/04/04 07:09:44;;;;;;;16.38;11.00;;;5.20;99.90;;;;;;5055128;28;20021;-56
2022/04/04 07:12:10;;;;;;;18.52;11.50;;;5.20;99.90;;;;;;5055565;28;20029;-57
2022/04/04 07:14:36;;;;;;;14.20;8.73;;;5.40;99.90;;;;;;5054738;28;20036;-56
2022/04/04 07:17:02;;;;;;;18.00;10.82;;;5.40;99.90;;;;;;5054759;28;20116;-56
2022/04/04 07:19:33;;;;;;;13.38;9.15;;;5.40;99.90;;;;;;5055689;28;20021;-57
2022/04/04 07:22:02;;;;;;;16.08;11.00;;;5.40;99.90;;;;;;5054018;28;20118;-56
2022/04/04 07:24:28;;;;;;;18.92;11.75;;;5.50;99.90;;;;;;5055860;28;20017;-57
2022/04/04 07:26:54;;;;;;;16.38;10.13;;;5.60;99.90;;;;;;5054024;28;20029;-57
2022/04/04 07:29:20;;;;;;;16.52;9.80;;;5.70;99.90;;;;;;5053974;28;20367;-57
2022/04/04 07:31:45;;;;;;;17.33;10.98;;;5.80;99.90;;;;;;5054475;28;20051;-57
2022/04/04 07:34:11;;;;;;;18.35;11.35;;;5.80;99.90;;;;;;5055009;28;20179;-57
2022/04/04 07:36:40;;;;;;;18.02;10.93;;;5.80;99.90;;;;;;5054245;28;20359;-57
2022/04/04 07:39:06;;;;;;;13.90;9.20;;;5.80;99.90;;;;;;5054081;28;20024;-57
2022/04/04 07:41:32;;;;;;;17.73;10.48;;;5.90;99.90;;;;;;5053809;28;20025;-57
2022/04/04 07:43:57;;;;;;;17.67;10.90;;;5.80;99.90;;;;;;5053758;28;20025;-58
2022/04/04 07:46:23;;;;;;;13.15;8.05;;;5.90;99.90;;;;;;5053887;28;20029;-57
2022/04/04 07:48:48;;;;;;;16.90;10.25;;;6.10;99.90;;;;;;5054788;28;20080;-56
2022/04/04 07:51:14;;;;;;;18.25;11.35;;;6.20;99.90;;;;;;5055843;28;20043;-56
2022/04/04 07:53:40;;;;;;;18.00;11.07;;;6.10;99.90;;;;;;5055876;28;20013;-56
2022/04/04 07:56:05;;;;;;;18.35;8.65;;;6.20;99.90;;;;;;5054840;28;20427;-57
2022/04/04 07:58:31;;;;;;;19.65;10.02;;;6.20;99.90;;;;;;5052791;28;20029;-56
2022/04/04 08:00:57;;;;;;;15.20;9.48;;;6.30;99.90;;;;;;5052037;28;20003;-57
2022/04/04 08:03:23;;;;;;;17.65;10.52;;;6.30;99.90;;;;;;5051808;28;20519;-56
2022/04/04 08:05:49;;;;;;;17.25;10.05;;;6.30;99.90;;;;;;5049956;28;20063;-57
2022/04/04 08:08:15;;;;;;;13.77;8.13;;;6.30;99.90;;;;;;5053489;28;20040;-56
2022/04/04 08:10:41;;;;;;;16.80;9.35;;;6.40;99.90;;;;;;5059589;28;20279;-56
2022/04/04 08:13:07;;;;;;;12.52;7.40;;;6.40;99.90;;;;;;5055824;28;20374;-56
2022/04/04 08:15:33;;;;;;;17.08;10.00;;;6.50;99.90;;;;;;5049374;28;20033;-57
2022/04/04 08:17:59;;;;;;;14.13;8.98;;;6.60;99.90;;;;;;5069382;28;20025;-57
2022/04/04 08:20:25;;;;;;;15.93;9.75;;;6.60;99.90;;;;;;5055683;28;20040;-57
2022/04/04 08:22:51;;;;;;;18.63;9.82;;;6.50;99.90;;;;;;5053069;28;20013;-56
2022/04/04 08:25:17;;;;;;;14.02;9.45;;;6.60;99.90;;;;;;5056679;28;20036;-57
2022/04/04 08:27:43;;;;;;;18.45;10.77;;;6.60;99.90;;;;;;5051480;28;20032;-56
2022/04/04 08:30:11;;;;;;;19.60;10.30;;;6.70;99.90;;;;;;5053793;28;20033;-56
2022/04/04 08:32:38;;;;;;;16.77;10.77;;;6.70;99.90;;;;;;5059906;28;20107;-56
2022/04/04 08:35:06;;;;;;;19.13;8.65;;;6.70;99.90;;;;;;5055983;28;20044;-57
2022/04/04 08:37:33;;;;;;;18.05;9.18;;;6.60;99.90;;;;;;5065842;28;20061;-57
2022/04/04 08:39:59;;;;;;;21.35;10.50;;;6.70;99.90;;;;;;5058142;28;20043;-57
2022/04/04 08:42:26;;;;;;;15.25;9.30;;;6.80;99.90;;;;;;5058482;28;20107;-56
2022/04/04 08:44:58;;;;;;;15.40;8.85;;;6.80;99.90;;;;;;5052809;28;20596;-56
2022/04/04 08:47:24;;;;;;;15.45;9.35;;;6.80;99.90;;;;;;5054867;28;20393;-60
2022/04/04 08:49:54;;;;;;;14.45;9.38;;;6.80;99.90;;;;;;5051820;28;20482;-57
2022/04/04 08:52:22;;;;;;;18.48;9.88;;;6.80;99.90;;;;;;5054436;28;20567;-57
2022/04/04 08:54:48;;;;;;;16.73;9.95;;;6.90;99.90;;;;;;5052578;28;20031;-57
2022/04/04 08:57:15;;;;;;;18.70;10.50;;;7.00;99.90;;;;;;5072091;28;20497;-57
2022/04/04 08:59:43;;;;;;;17.98;10.25;;;7.00;99.90;;;;;;5053655;28;20545;-60
2022/04/04 09:02:12;;;;;;;14.68;9.38;;;7.00;99.90;;;;;;5053868;28;20032;-56
2022/04/04 09:04:40;;;;;;;13.10;7.93;;;6.90;99.90;;;;;;5057868;28;20029;-57
2022/04/04 09:07:09;;;;;;;11.25;7.38;;;6.90;99.90;;;;;;5052644;28;20437;-57
2022/04/04 09:09:46;;;;;;;15.55;9.18;;;6.90;99.90;;;;;;5049531;28;20731;-57
2022/04/04 09:12:22;;;;;;;17.17;8.80;;;6.80;99.90;;;;;;5052671;28;20033;-57
2022/04/04 09:14:52;;;;;;;12.77;7.97;;;6.80;99.90;;;;;;5051520;28;20041;-57
2022/04/04 09:17:29;;;;;;;12.90;8.30;;;6.80;99.90;;;;;;5049572;28;20230;-57
2022/04/04 09:19:55;;;;;;;14.10;8.20;;;6.80;99.90;;;;;;5043388;28;20009;-57
2022/04/04 09:22:22;;;;;;;12.82;9.20;;;6.70;99.90;;;;;;5050350;28;20071;-57
2022/04/04 09:24:55;;;;;;;16.02;8.55;;;6.60;99.90;;;;;;5050512;28;20025;-57
2022/04/04 09:27:28;;;;;;;14.90;8.57;;;6.60;99.90;;;;;;5051462;28;20021;-56
2022/04/04 09:29:57;;;;;;;17.98;9.32;;;6.60;99.90;;;;;;5043527;28;20079;-57
2022/04/04 09:32:38;;;;;;;18.85;9.48;;;6.60;99.90;;;;;;5047721;28;20085;-56
2022/04/04 09:35:11;;;;;;;16.13;9.73;;;6.70;99.90;;;;;;5057043;28;20041;-58
2022/04/04 09:37:38;;;;;;;;;;;6.80;99.90;;;;;;5051112;28;20025;-57
2022/04/04 09:40:12;;;;;;;15.95;9.63;;;6.60;99.90;;;;;;5060522;28;20629;-57
2022/04/04 09:42:37;;;;;;;14.88;9.05;;;6.70;99.90;;;;;;5055448;28;20021;-57
2022/04/04 09:45:11;;;;;;;11.75;6.75;;;6.70;99.90;;;;;;5054845;28;20032;-57
2022/04/04 09:47:54;;;;;;;14.75;8.65;;;6.60;99.90;;;;;;5052103;28;20032;-57
2022/04/04 09:50:37;;;;;;;12.45;6.95;;;6.50;99.90;;;;;;5061654;28;20514;-57
2022/04/04 09:53:08;;;;;;;18.67;10.88;;;6.40;99.90;;;;;;5069179;28;20039;-56
2022/04/04 09:55:45;;;;;;;17.20;10.20;;;6.40;99.90;;;;;;5052079;28;20478;-57
2022/04/04 09:58:14;;;;;;;15.60;8.70;;;6.30;99.90;;;;;;5049065;28;20048;-57
2022/04/04 10:00:42;;;;;;;16.17;10.27;;;6.40;99.90;;;;;;5050077;28;20055;-57
2022/04/04 10:03:12;;;;;;;16.65;10.77;;;6.30;99.90;;;;;;5057842;28;20139;-57
2022/04/04 10:05:43;;;;;;;16.30;8.38;;;6.30;99.90;;;;;;5056609;28;20479;-57
2022/04/04 10:08:15;;;;;;;15.23;10.07;;;6.20;99.90;;;;;;5051790;28;20048;-57
2022/04/04 10:10:42;;;;;;;15.25;10.38;;;6.20;99.90;;;;;;5051792;28;20479;-58
2022/04/04 10:13:11;;;;;;;14.15;9.63;;;6.30;99.90;;;;;;5052573;28;20032;-59
2022/04/04 10:15:37;;;;;;;17.83;9.40;;;6.20;99.90;;;;;;5050193;28;20056;-57
2022/04/04 10:18:04;;;;;;;13.02;9.90;;;6.30;99.90;;;;;;5060171;28;20063;-56
2022/04/04 10:20:30;;;;;;;19.63;9.43;;;6.20;99.90;;;;;;5071305;28;20526;-57
2022/04/04 10:22:57;;;;;;;13.93;8.40;;;6.20;99.90;;;;;;5063428;28;20049;-57
2022/04/04 10:25:26;;;;;;;18.92;10.02;;;6.20;99.90;;;;;;5055830;28;20029;-57
2022/04/04 10:27:53;;;;;;;17.83;10.93;;;6.10;99.90;;;;;;5058151;28;20040;-57
2022/04/04 10:30:41;;;;;;;14.82;7.70;;;6.10;99.90;;;;;;5054237;28;20021;-57
2022/04/04 10:33:22;;;;;;;19.00;10.95;;;6.10;99.90;;;;;;5042653;28;20474;-57
2022/04/04 10:36:22;;;;;;;21.02;11.90;;;6.20;99.90;;;;;;5081271;28;20354;-57
2022/04/04 10:38:55;;;;;;;16.95;10.25;;;6.20;99.90;;;;;;5042107;28;20037;-57
2022/04/04 10:41:32;;;;;;;18.90;10.88;;;6.30;99.90;;;;;;5072821;28;20032;-58
2022/04/04 10:43:58;;;;;;;19.50;12.38;;;6.30;99.90;;;;;;5071128;28;20020;-57
2022/04/04 10:46:25;;;;;;;18.05;11.77;;;6.30;99.90;;;;;;5060580;28;20078;-57
2022/04/04 10:49:03;;;;;;;18.42;12.48;;;6.30;99.90;;;;;;5065918;28;20489;-57
2022/04/04 10:51:37;;;;;;;15.65;11.55;;;6.30;99.90;;;;;;5058095;28;20427;-59
2022/04/04 10:54:02;;;;;;;13.90;10.93;;;6.30;99.90;;;;;;5055583;28;20029;-60
2022/04/04 10:56:30;;;;;;;15.98;10.85;;;6.40;99.90;;;;;;5054540;28;20117;-63
2022/04/04 10:59:23;;;;;;;16.05;11.73;;;6.50;99.90;;;;;;5054362;28;20301;-62
2022/04/04 11:01:55;;;;;;;16.77;9.98;;;6.40;99.90;;;;;;5058535;28;20021;-63
2022/04/04 11:07:38;;;;;;;15.85;10.07;;;6.30;99.90;;;;;;5080505;28;20444;-63
2022/04/04 11:07:38;;;;;;;15.32;11.10;;;6.30;99.90;;;;;;5035744;28;20495;-61
2022/04/04 11:10:06;;;;;;;14.18;8.95;;;6.40;99.90;;;;;;5053908;28;20033;-62
2022/04/04 11:12:54;;;;;;;15.93;8.55;;;6.40;99.90;;;;;;5070249;28;20067;-63
2022/04/04 11:15:48;;;;;;;21.08;10.75;;;6.40;99.90;;;;;;5053799;28;20075;-63
2022/04/04 11:18:14;;;;;;;18.23;11.15;;;6.30;99.90;;;;;;5054930;28;20071;-61
2022/04/04 11:20:51;;;;;;;16.48;11.05;;;6.30;99.90;;;;;;5054130;28;20035;-62
2022/04/04 11:23:17;;;;;;;18.35;12.70;;;6.30;99.90;;;;;;5052208;28;20426;-63
2022/04/04 11:26:04;;;;;;;22.00;13.10;;;6.30;99.90;;;;;;5054386;28;20021;-64
2022/04/04 11:28:35;;;;;;;21.38;12.45;;;6.30;99.90;;;;;;5055025;28;20021;-63
2022/04/04 11:31:08;;;;;;;17.92;10.30;;;6.30;99.90;;;;;;5055184;28;20047;-64
2022/04/04 11:33:54;;;;;;;17.70;12.02;;;6.30;99.90;;;;;;5069902;28;20025;-63
2022/04/04 11:36:32;;;;;;;19.50;12.23;;;6.20;99.90;;;;;;5069902;28;20163;-63
2022/04/04 11:39:07;;;;;;;17.88;12.18;;;6.20;99.90;;;;;;5054058;28;20033;-61
2022/04/04 11:41:36;;;;;;;14.63;10.45;;;6.20;99.90;;;;;;5036546;28;20021;-62
2022/04/04 11:44:06;;;;;;;19.13;13.27;;;6.30;99.90;;;;;;5053716;28;20094;-59
2022/04/04 11:46:32;;;;;;;17.95;11.90;;;6.30;99.90;;;;;;5054941;28;20021;-56
2022/04/04 11:48:59;;;;;;;21.88;14.85;;;6.20;99.90;;;;;;5053098;28;20089;-55
2022/04/04 11:51:37;;;;;;;20.08;13.27;;;6.30;99.90;;;;;;5053801;28;20028;-58
2022/04/04 11:54:03;;;;;;;18.55;13.15;;;6.30;99.90;;;;;;5054043;28;20099;-60
2022/04/04 11:56:29;;;;;;;24.23;16.70;;;6.30;99.90;;;;;;5053240;28;20025;-59
2022/04/04 11:58:55;;;;;;;21.50;14.60;;;6.40;99.90;;;;;;5053818;28;20021;-58
2022/04/04 12:01:27;;;;;;;19.63;14.00;;;6.40;99.90;;;;;;5053318;28;20017;-56
2022/04/04 12:03:53;;;;;;;20.77;14.05;;;6.40;99.90;;;;;;5053341;28;20459;-56
2022/04/04 12:06:20;;;;;;;20.60;14.35;;;6.40;99.90;;;;;;5053800;28;20036;-55
2022/04/04 12:08:46;;;;;;;22.63;14.15;;;6.40;99.90;;;;;;5054106;28;20029;-55
2022/04/04 12:11:12;;;;;;;16.40;12.50;;;6.40;99.90;;;;;;5055182;28;20056;-55
2022/04/04 12:14:00;;;;;;;18.35;14.05;;;6.40;99.90;;;;;;5054573;28;20040;-54
2022/04/04 12:16:27;;;;;;;22.58;13.25;;;6.40;99.90;;;;;;5053578;28;20079;-56
2022/04/04 12:18:59;;;;;;;19.98;13.77;;;6.40;99.90;;;;;;5054325;28;20421;-55
2022/04/04 12:21:25;;;;;;;;;;;6.50;99.90;;;;;;5055222;28;20103;-55
2022/04/04 12:26:35;;;;;;;20.92;13.77;;;6.40;99.90;;;;;;5053260;28;20075;-54
2022/04/04 12:29:03;;;;;;;22.17;14.15;;;6.50;99.90;;;;;;5053976;28;20029;-54
2022/04/04 12:31:29;;;;;;;13.30;11.13;;;6.50;99.90;;;;;;5054126;28;20044;-55
2022/04/04 12:34:10;;;;;;;21.98;13.43;;;6.40;99.90;;;;;;5053549;28;20029;-53
2022/04/04 12:36:41;;;;;;;19.65;13.93;;;6.50;99.90;;;;;;5053580;28;20491;-54
2022/04/04 12:39:20;;;;;;;19.92;13.07;;;6.50;99.90;;;;;;5053307;28;20227;-56
2022/04/04 12:41:50;;;;;;;19.63;13.90;;;6.60;99.90;;;;;;5054741;28;20474;-56
2022/04/04 12:44:34;;;;;;;16.63;10.98;;;6.50;99.90;;;;;;5069239;28;20021;-55
2022/04/04 12:47:11;;;;;;;19.58;12.98;;;6.50;99.90;;;;;;5052986;28;20025;-55
2022/04/04 12:49:40;;;;;;;20.17;15.55;;;6.40;99.90;;;;;;5053087;28;20178;-54
2022/04/04 12:52:08;;;;;;;21.42;13.88;;;6.40;99.90;;;;;;5054062;28;20036;-53